createdAt,value
2022-09-09T00:02:03.269Z,153765.25
2022-09-09T00:04:32.793Z,153792.50
2022-09-09T00:07:09.879Z,153767.84
2022-09-09T00:09:46.018Z,153760.13
2022-09-09T00:12:17.361Z,153792.50
2022-09-09T00:14:53.625Z,153795.09
2022-09-09T00:17:35.375Z,153787.31
2022-09-09T00:20:11.758Z,153806.75
2022-09-09T00:22:46.830Z,153784.72
2022-09-09T00:25:22.614Z,153779.53
2022-09-09T00:27:52.704Z,153792.50
2022-09-09T00:30:24.777Z,153814.50
2022-09-09T00:32:59.197Z,153787.31
2022-09-09T00:35:31.728Z,153783.44
2022-09-09T00:38:05.507Z,153752.31
2022-09-09T00:40:35.402Z,153779.53
2022-09-09T00:43:23.289Z,153744.53
2022-09-09T00:46:09.125Z,153748.47
2022-09-09T00:48:49.699Z,153751.06
2022-09-09T00:51:24.762Z,153732.88
2022-09-09T00:54:13.239Z,153727.75
2022-09-09T00:56:49.380Z,153738.06
2022-09-09T00:59:30.500Z,153714.75
2022-09-09T01:02:02.056Z,153692.72
2022-09-09T01:04:36.464Z,153701.81
2022-09-09T01:07:13.720Z,153683.66
2022-09-09T01:09:53.221Z,153673.31
2022-09-09T01:12:27.924Z,153665.53
2022-09-09T01:15:03.955Z,153661.66
2022-09-09T01:17:36.731Z,153665.53
2022-09-09T01:20:08.903Z,153683.66
2022-09-09T01:22:42.410Z,153675.91
2022-09-09T01:25:22.014Z,153653.88
2022-09-09T01:27:54.539Z,153696.63
2022-09-09T01:30:23.318Z,153687.56
2022-09-09T01:32:52.803Z,153678.50
2022-09-09T01:35:31.713Z,153665.53
2022-09-09T01:37:59.627Z,153688.84
2022-09-09T01:40:28.260Z,153669.41
2022-09-09T01:42:58.376Z,153642.22
2022-09-09T01:45:26.959Z,153639.63
2022-09-09T01:47:55.308Z,153609.84
2022-09-09T01:50:23.465Z,153655.19
2022-09-09T01:52:55.181Z,153657.75
2022-09-09T01:55:31.860Z,153666.84
2022-09-09T01:58:16.815Z,153655.19
2022-09-09T02:00:51.530Z,153668.13
2022-09-09T02:03:25.903Z,153703.09
2022-09-09T02:06:02.959Z,153709.56
2022-09-09T02:08:38.878Z,153706.97
2022-09-09T02:11:12.366Z,153727.75
2022-09-09T02:13:42.995Z,153734.22
2022-09-09T02:16:16.976Z,153714.75
2022-09-09T02:18:50.360Z,153709.56
2022-09-09T02:21:20.143Z,153704.38
2022-09-09T02:23:52.969Z,153687.56
2022-09-09T02:26:24.449Z,153706.97
2022-09-09T02:28:57.258Z,153660.34
2022-09-09T02:31:27.134Z,153670.72
2022-09-09T02:33:59.519Z,153704.38
2022-09-09T02:36:31.195Z,153687.56
2022-09-09T02:38:59.262Z,153664.25
2022-09-09T02:41:31.346Z,153662.94
2022-09-09T02:44:00.634Z,153660.34
2022-09-09T02:46:46.332Z,153642.22
2022-09-09T02:49:25.277Z,153668.13
2022-09-09T02:51:58.841Z,153668.13
2022-09-09T02:54:32.186Z,153678.50
2022-09-09T02:57:06.716Z,153664.25
2022-09-09T02:59:36.015Z,153700.50
2022-09-09T03:02:04.107Z,153708.28
2022-09-09T03:04:32.798Z,153682.38
2022-09-09T03:07:01.420Z,153730.28
2022-09-09T03:09:29.172Z,153705.69
2022-09-09T03:11:57.062Z,153744.53
2022-09-09T03:14:26.133Z,153741.94
2022-09-09T03:16:57.472Z,153731.59
2022-09-09T03:19:25.931Z,153753.59
2022-09-09T03:21:53.696Z,153766.59
2022-09-09T03:24:22.361Z,153776.91
2022-09-09T03:26:51.548Z,153735.47
2022-09-09T03:29:19.468Z,153771.78
2022-09-09T03:31:47.749Z,153769.19
2022-09-09T03:34:16.950Z,153765.25
2022-09-09T03:36:44.682Z,153771.78
2022-09-09T03:39:12.415Z,153758.78
2022-09-09T03:41:40.168Z,153762.72
2022-09-09T03:44:08.006Z,153731.59
2022-09-09T03:46:35.932Z,153760.13
2022-09-09T03:49:03.668Z,153758.78
2022-09-09T03:51:33.019Z,153758.78
2022-09-09T03:54:01.806Z,153753.59
2022-09-09T03:56:29.616Z,153753.59
2022-09-09T03:58:57.310Z,153740.66
2022-09-09T04:01:25.169Z,153751.06
2022-09-09T04:03:53.618Z,153696.63
2022-09-09T04:06:22.381Z,153731.59
2022-09-09T04:08:53.258Z,153731.59
2022-09-09T04:11:21.220Z,153740.66
2022-09-09T04:13:49.815Z,153732.88
2022-09-09T04:16:17.680Z,153740.66
2022-09-09T04:18:45.604Z,153740.66
2022-09-09T04:21:14.147Z,153741.94
2022-09-09T04:23:42.247Z,153734.22
2022-09-09T04:26:11.672Z,153719.94
2022-09-09T04:28:39.621Z,153703.09
2022-09-09T04:31:08.772Z,153744.53
2022-09-09T04:33:40.135Z,153749.72
2022-09-09T04:36:09.043Z,153738.06
2022-09-09T04:38:37.149Z,153745.88
2022-09-09T04:41:05.109Z,153718.63
2022-09-09T04:43:34.301Z,153725.16
2022-09-09T04:46:02.110Z,153696.63
2022-09-09T04:48:30.009Z,153694.03
2022-09-09T04:50:59.319Z,153710.88
2022-09-09T04:53:28.122Z,153712.16
2022-09-09T04:56:05.709Z,153695.31
2022-09-09T04:58:35.216Z,153704.38
2022-09-09T05:01:08.128Z,153703.09
2022-09-09T05:03:36.083Z,153717.34
2022-09-09T05:06:09.240Z,153717.34
2022-09-09T05:08:38.130Z,153730.28
2022-09-09T05:11:06.379Z,153735.47
2022-09-09T05:13:38.428Z,153723.81
2022-09-09T05:16:12.270Z,153738.06
2022-09-09T05:18:40.427Z,153739.41
2022-09-09T05:21:08.676Z,153752.31
2022-09-09T05:23:36.577Z,153743.28
2022-09-09T05:26:05.137Z,153754.94
2022-09-09T05:28:33.031Z,153758.78
2022-09-09T05:31:05.824Z,153751.06
2022-09-09T05:33:34.221Z,153774.38
2022-09-09T05:36:03.816Z,153771.78
2022-09-09T05:38:33.444Z,153784.72
2022-09-09T05:41:01.826Z,153789.91
2022-09-09T05:43:30.466Z,153782.13
2022-09-09T05:46:05.296Z,153810.63
2022-09-09T05:48:35.236Z,153813.22
2022-09-09T05:51:03.841Z,153818.41
2022-09-09T05:53:33.201Z,153813.22
2022-09-09T05:56:04.351Z,153849.50
2022-09-09T05:58:32.688Z,153846.94
2022-09-09T06:01:06.144Z,153854.69
2022-09-09T06:03:34.403Z,153865.06
2022-09-09T06:06:03.296Z,153872.81
2022-09-09T06:08:31.036Z,153883.22
2022-09-09T06:11:04.981Z,153901.38
2022-09-09T06:13:36.100Z,153902.72
2022-09-09T06:16:05.751Z,153889.72
2022-09-09T06:18:33.595Z,153888.44
2022-09-09T06:21:05.372Z,153916.97
2022-09-09T06:23:33.500Z,153924.72
2022-09-09T06:26:07.056Z,153919.56
2022-09-09T06:28:35.226Z,153940.31
2022-09-09T06:31:06.551Z,153937.72
2022-09-09T06:33:36.024Z,153958.44
2022-09-09T06:36:05.333Z,153975.31
2022-09-09T06:38:33.131Z,153996.03
2022-09-09T06:41:02.817Z,154008.97
2022-09-09T06:43:31.177Z,154011.56
2022-09-09T06:46:00.260Z,154015.50
2022-09-09T06:48:30.085Z,154016.78
2022-09-09T06:51:05.721Z,154040.09
2022-09-09T06:53:35.049Z,154067.31
2022-09-09T06:56:03.363Z,154088.09
2022-09-09T06:58:32.352Z,154107.53
2022-09-09T07:01:06.870Z,154125.72
2022-09-09T07:03:36.313Z,154142.53
2022-09-09T07:06:05.314Z,154136.06
2022-09-09T07:08:33.532Z,154143.88
2022-09-09T07:11:11.595Z,154150.34
2022-09-09T07:13:40.101Z,154189.28
2022-09-09T07:16:10.441Z,154210.06
2022-09-09T07:18:39.717Z,154242.50
2022-09-09T07:21:09.069Z,154294.41
2022-09-09T07:23:37.550Z,154356.66
2022-09-09T07:26:09.692Z,154359.25
2022-09-09T07:28:37.845Z,154369.59
2022-09-09T07:31:07.083Z,154433.22
2022-09-09T07:33:36.484Z,154552.69
2022-09-09T07:36:08.937Z,154600.75
2022-09-09T07:38:40.856Z,154555.28
2022-09-09T07:41:12.717Z,154560.50
2022-09-09T07:43:41.679Z,154447.50
2022-09-09T07:46:10.825Z,154552.69
2022-09-09T07:48:38.893Z,154524.16
2022-09-09T07:51:11.565Z,154522.84
2022-09-09T07:53:39.829Z,154602.03
2022-09-09T07:56:10.391Z,154646.16
2022-09-09T07:58:38.871Z,154646.16
2022-09-09T08:01:12.462Z,154722.88
2022-09-09T08:03:41.166Z,154681.28
2022-09-09T08:06:10.840Z,154625.41
2022-09-09T08:08:39.764Z,154716.38
2022-09-09T08:11:10.048Z,154812.50
2022-09-09T08:13:38.619Z,154780.00
2022-09-09T08:16:08.351Z,154925.50
2022-09-09T08:18:37.027Z,154843.66
2022-09-09T08:21:14.121Z,154887.81
2022-09-09T08:23:43.238Z,154757.94
2022-09-09T08:26:13.570Z,154820.28
2022-09-09T08:28:43.207Z,154834.56
2022-09-09T08:31:14.440Z,154869.66
2022-09-09T08:33:48.342Z,154795.63
2022-09-09T08:36:19.607Z,154829.34
2022-09-09T08:38:51.348Z,154730.63
2022-09-09T08:41:39.189Z,154676.06
2022-09-09T08:44:09.815Z,154730.63
2022-09-09T08:46:50.837Z,154657.91
2022-09-09T08:49:40.981Z,154757.94
2022-09-09T08:52:16.913Z,154894.38
2022-09-09T08:54:52.167Z,154941.13
2022-09-09T08:57:28.006Z,155004.88
2022-09-09T08:59:58.617Z,154943.75
2022-09-09T09:02:30.024Z,155111.44
2022-09-09T09:05:07.420Z,155017.84
2022-09-09T09:07:54.247Z,155062.03
2022-09-09T09:10:42.546Z,155047.75
2022-09-09T09:13:18.383Z,155075.06
2022-09-09T09:15:51.721Z,155076.34
2022-09-09T09:18:22.462Z,154990.56
2022-09-09T09:20:56.561Z,154993.19
2022-09-09T09:23:28.382Z,154911.25
2022-09-09T09:26:01.477Z,154995.78
2022-09-09T09:28:32.157Z,154969.78
2022-09-09T09:31:05.643Z,154954.13
2022-09-09T09:33:40.065Z,154969.78
2022-09-09T09:36:09.192Z,154933.31
2022-09-09T09:41:36.370Z,155121.88
2022-09-09T09:44:05.588Z,154976.28
2022-09-09T09:46:34.142Z,155082.84
2022-09-09T09:49:03.896Z,155042.56
2022-09-09T09:51:33.431Z,155134.84
2022-09-09T09:54:17.074Z,155262.34
2022-09-09T09:56:46.256Z,155225.94
2022-09-09T09:59:41.300Z,155283.16
2022-09-09T10:02:21.977Z,155306.56
2022-09-09T10:04:50.036Z,155255.84
2022-09-09T10:07:21.918Z,155353.38
2022-09-09T10:09:56.110Z,155271.44
2022-09-09T10:12:33.001Z,155277.94
2022-09-09T10:15:09.803Z,155250.63
2022-09-09T10:17:57.053Z,155125.75
2022-09-09T10:20:36.643Z,155168.66
2022-09-09T10:23:21.527Z,155189.50
2022-09-09T10:26:14.400Z,155132.25
2022-09-09T10:29:05.964Z,155043.84
2022-09-09T10:31:40.994Z,155132.25
2022-09-09T10:34:21.175Z,155159.56
2022-09-09T10:36:52.067Z,155254.53
2022-09-09T10:39:40.525Z,155203.81
2022-09-09T10:42:15.298Z,155182.97
2022-09-09T10:45:03.652Z,155244.16
2022-09-09T10:47:45.617Z,155149.16
2022-09-09T10:51:00.467Z,155124.47
2022-09-09T10:53:38.376Z,155160.84
2022-09-09T10:56:10.183Z,155155.63
2022-09-09T10:58:46.405Z,155249.34
2022-09-09T11:01:20.864Z,155272.75
2022-09-09T11:03:56.572Z,155296.19
2022-09-09T11:06:30.740Z,155257.13
2022-09-09T11:09:02.291Z,155262.34
2022-09-09T11:11:38.036Z,155163.47
2022-09-09T11:14:14.443Z,155095.84
2022-09-09T11:16:49.245Z,155203.81
2022-09-09T11:19:27.050Z,155141.38
2022-09-09T11:21:55.815Z,155110.16
2022-09-09T11:24:29.001Z,155125.75
2022-09-09T11:27:05.132Z,155186.84
2022-09-09T11:30:07.296Z,155257.13
2022-09-09T11:32:52.199Z,155359.88
2022-09-09T11:35:35.580Z,155362.47
2022-09-09T11:38:19.082Z,155378.13
2022-09-09T11:40:47.388Z,155410.69
2022-09-09T11:43:20.230Z,155413.28
2022-09-09T11:46:00.536Z,155344.28
2022-09-09T11:48:34.618Z,155384.63
2022-09-09T11:51:11.060Z,155336.47
2022-09-09T11:53:51.372Z,155363.81
2022-09-09T11:56:31.829Z,155331.28
2022-09-09T11:59:03.092Z,155392.44
2022-09-09T12:01:38.075Z,155284.47
2022-09-09T12:04:30.227Z,155296.19
2022-09-09T12:07:01.308Z,155231.13
2022-09-09T12:09:37.982Z,155175.16
2022-09-09T12:12:25.532Z,155162.19
2022-09-09T12:15:21.845Z,155102.34
2022-09-09T12:17:52.590Z,155146.53
2022-09-09T12:20:23.046Z,155028.28
2022-09-09T12:23:20.140Z,155015.25
2022-09-09T12:26:00.592Z,155008.75
2022-09-09T12:28:42.948Z,155039.97
2022-09-09T12:31:18.856Z,155017.84
2022-09-09T12:33:49.107Z,155071.13
2022-09-09T12:36:21.218Z,155108.84
2022-09-09T12:38:49.277Z,155076.34
2022-09-09T12:41:25.411Z,155036.03
2022-09-09T12:43:53.873Z,155075.06
2022-09-09T12:46:32.800Z,155129.69
2022-09-09T12:49:02.022Z,155094.53
2022-09-09T12:51:32.541Z,155054.28
2022-09-09T12:54:02.129Z,154978.88
2022-09-09T12:56:33.018Z,155042.56
2022-09-09T12:59:01.908Z,155212.91
2022-09-09T13:01:32.201Z,155306.56
2022-09-09T13:04:02.631Z,155192.13
2022-09-09T13:06:32.129Z,155228.50
2022-09-09T13:09:02.037Z,155389.81
2022-09-09T13:11:37.471Z,155436.72
2022-09-09T13:14:05.937Z,155598.06
2022-09-09T13:16:40.444Z,155548.59
2022-09-09T13:19:17.699Z,155622.81
2022-09-09T13:21:45.666Z,155650.19
2022-09-09T13:24:29.468Z,155340.41
2022-09-09T13:26:58.854Z,155397.59
2022-09-09T13:29:27.115Z,155266.22
2022-09-09T13:31:56.675Z,155180.38
2022-09-09T13:34:34.033Z,155136.16
2022-09-09T13:37:04.578Z,155127.06
2022-09-09T13:39:37.451Z,155072.47
2022-09-09T13:42:08.141Z,155055.56
2022-09-09T13:44:44.314Z,154998.34
2022-09-09T13:47:21.683Z,155041.25
2022-09-09T13:49:51.969Z,155036.03
2022-09-09T13:52:21.092Z,154982.75
2022-09-09T13:54:52.161Z,154893.03
2022-09-09T13:57:22.001Z,154713.78
2022-09-09T14:00:06.279Z,154485.19
2022-09-09T14:02:34.838Z,154607.22
2022-09-09T14:05:04.379Z,154599.41
2022-09-09T14:07:33.111Z,154516.34
2022-09-09T14:10:01.391Z,154660.44
2022-09-09T14:12:29.337Z,154700.72
2022-09-09T14:14:57.177Z,154718.94
2022-09-09T14:17:25.995Z,154768.31
2022-09-09T14:19:53.861Z,154785.19
2022-09-09T14:22:23.171Z,154594.25
2022-09-09T14:24:51.329Z,154726.75
2022-09-09T14:27:19.724Z,154825.47
2022-09-09T14:29:47.631Z,154848.88
2022-09-09T14:32:15.530Z,154781.31
2022-09-09T14:34:43.366Z,154833.28
2022-09-09T14:37:11.252Z,154903.44
2022-09-09T14:39:40.559Z,154921.63
2022-09-09T14:42:09.708Z,154880.06
2022-09-09T14:44:38.580Z,154900.84
2022-09-09T14:47:06.661Z,154928.13
2022-09-09T14:49:34.462Z,154926.84
2022-09-09T14:52:02.395Z,154913.81
2022-09-09T14:54:30.368Z,154737.16
2022-09-09T14:56:59.551Z,154759.22
2022-09-09T14:59:27.859Z,154912.53
2022-09-09T15:01:55.852Z,154820.28
2022-09-09T15:04:23.794Z,154878.75
2022-09-09T15:06:53.454Z,154894.38
2022-09-09T15:09:21.289Z,154911.25
2022-09-09T15:11:49.289Z,154695.50
2022-09-09T15:14:22.051Z,154717.66
2022-09-09T15:16:51.584Z,154703.31
2022-09-09T15:19:19.524Z,154702.06
2022-09-09T15:21:47.320Z,154695.50
2022-09-09T15:24:15.152Z,154499.47
2022-09-09T15:26:42.958Z,154374.81
2022-09-09T15:29:11.305Z,154311.22
2022-09-09T15:31:40.734Z,154342.38
2022-09-09T15:34:10.032Z,154352.78
2022-09-09T15:36:39.209Z,154416.31
2022-09-09T15:39:10.611Z,154251.56
2022-09-09T15:41:38.339Z,154350.19
2022-09-09T15:44:06.504Z,154315.16
2022-09-09T15:46:37.128Z,154263.25
2022-09-09T15:49:11.532Z,154260.66
2022-09-09T15:51:43.634Z,154287.88
2022-09-09T15:54:14.039Z,154160.72
2022-09-09T15:56:43.172Z,154215.22
2022-09-09T15:59:10.955Z,154256.78
2022-09-09T16:01:40.464Z,154260.66
2022-09-09T16:04:10.572Z,154248.97
2022-09-09T16:06:38.848Z,154246.38
2022-09-09T16:09:08.392Z,154210.06
2022-09-09T16:11:38.458Z,154246.38
2022-09-09T16:14:07.770Z,154199.69
2022-09-09T16:16:36.228Z,154181.53
2022-09-09T16:19:06.759Z,154173.69
2022-09-09T16:21:38.606Z,154219.16
2022-09-09T16:24:08.206Z,154242.50
2022-09-09T16:26:39.055Z,154241.16
2022-09-09T16:29:06.954Z,154225.63
2022-09-09T16:31:35.451Z,154219.16
2022-09-09T16:34:04.476Z,154255.44
2022-09-09T16:36:35.973Z,154230.81
2022-09-09T16:39:07.738Z,154260.66
2022-09-09T16:41:35.884Z,154251.56
2022-09-09T16:44:05.781Z,154212.63
2022-09-09T16:46:36.493Z,154182.81
2022-09-09T16:49:07.465Z,154150.34
2022-09-09T16:51:37.852Z,154208.75
2022-09-09T16:54:09.056Z,154162.00
2022-09-09T16:56:38.992Z,154180.19
2022-09-09T16:59:08.531Z,154147.75
2022-09-09T17:01:38.914Z,154106.25
2022-09-09T17:04:09.583Z,154141.25
2022-09-09T17:06:39.090Z,154145.13
2022-09-09T17:09:10.532Z,154088.09
2022-09-09T17:11:39.549Z,154134.78
2022-09-09T17:14:10.270Z,154137.38
2022-09-09T17:16:40.529Z,154124.41
2022-09-09T17:19:09.269Z,154142.53
2022-09-09T17:21:45.755Z,154119.19
2022-09-09T17:24:24.121Z,154129.59
2022-09-09T17:26:51.956Z,154151.63
2022-09-09T17:29:20.224Z,154101.06
2022-09-09T17:31:47.947Z,154051.78
2022-09-09T17:34:15.842Z,154062.16
2022-09-09T17:36:43.610Z,154128.25
2022-09-09T17:39:11.458Z,154125.72
2022-09-09T17:41:41.835Z,154147.75
2022-09-09T17:44:11.002Z,154124.41
2022-09-09T17:46:41.763Z,154151.63
2022-09-09T17:49:12.928Z,154114.06
2022-09-09T17:51:42.514Z,154121.78
2022-09-09T17:54:13.218Z,154138.66
2022-09-09T17:56:42.949Z,154128.25
2022-09-09T17:59:18.622Z,154106.25
2022-09-09T18:01:48.139Z,154106.25
2022-09-09T18:04:17.674Z,154120.53
2022-09-09T18:06:46.776Z,154125.72
2022-09-09T18:09:16.952Z,154101.06
2022-09-09T18:11:47.623Z,154081.59
2022-09-09T18:14:18.097Z,154103.66
2022-09-09T18:16:46.191Z,154080.31
2022-09-09T18:19:16.416Z,154111.44
2022-09-09T18:21:45.635Z,154114.06
2022-09-09T18:24:16.115Z,154123.13
2022-09-09T18:26:45.481Z,154099.78
2022-09-09T18:29:16.990Z,154111.44
2022-09-09T18:31:44.919Z,154115.31
2022-09-09T18:34:15.793Z,154107.53
2022-09-09T18:36:45.455Z,154051.78
2022-09-09T18:39:15.088Z,154072.53
2022-09-09T18:41:45.533Z,154077.72
2022-09-09T18:44:17.381Z,154056.97
2022-09-09T18:46:45.804Z,154085.50
2022-09-09T18:49:16.196Z,154099.78
2022-09-09T18:51:46.482Z,154088.09
2022-09-09T18:54:16.684Z,154079.00
2022-09-09T18:56:44.952Z,154058.25
2022-09-09T18:59:17.151Z,154075.13
2022-09-09T19:01:45.439Z,154043.97
2022-09-09T19:04:13.901Z,154019.38
2022-09-09T19:06:44.237Z,154036.25
2022-09-09T19:09:12.907Z,154040.09
2022-09-09T19:11:41.371Z,154036.25
2022-09-09T19:14:12.750Z,154011.56
2022-09-09T19:16:42.367Z,154041.44
2022-09-09T19:19:14.434Z,154055.66
2022-09-09T19:21:43.536Z,154038.84
2022-09-09T19:24:14.258Z,154024.56
2022-09-09T19:26:44.542Z,154051.78
2022-09-09T19:29:14.413Z,154025.84
2022-09-09T19:32:01.915Z,154037.50
2022-09-09T19:34:31.829Z,154011.56
2022-09-09T19:37:00.219Z,154018.03
2022-09-09T19:39:27.984Z,153966.22
2022-09-09T19:41:55.772Z,153998.63
2022-09-09T19:44:23.553Z,154021.97
2022-09-09T19:46:52.746Z,154019.38
2022-09-09T19:49:20.504Z,154029.72
2022-09-09T19:51:48.269Z,154007.69
2022-09-09T19:54:16.092Z,154034.91
2022-09-09T19:56:44.941Z,154012.91
2022-09-09T19:59:15.664Z,154006.38
2022-09-09T20:01:45.637Z,154005.09
2022-09-09T20:04:17.787Z,153986.97
2022-09-09T20:06:45.808Z,153992.16
2022-09-09T20:09:16.329Z,153985.63
2022-09-09T20:11:45.707Z,154003.81
2022-09-09T20:14:13.753Z,153989.56
2022-09-09T20:16:42.544Z,153994.72
2022-09-09T20:19:12.833Z,153992.16
2022-09-09T20:21:47.597Z,153985.63
2022-09-09T20:24:18.381Z,153994.72
2022-09-09T20:26:47.403Z,153976.56
2022-09-09T20:29:17.175Z,153954.56
2022-09-09T20:31:46.026Z,153949.38
2022-09-09T20:34:15.911Z,153998.63
2022-09-09T20:36:46.076Z,153986.97
2022-09-09T20:39:15.976Z,153984.38
2022-09-09T20:41:46.037Z,153986.97
2022-09-09T20:44:16.132Z,153990.84
2022-09-09T20:46:48.079Z,153999.91
2022-09-09T20:49:17.533Z,153983.03
2022-09-09T20:51:47.905Z,153988.25
2022-09-09T20:54:18.168Z,154008.97
2022-09-09T20:56:46.960Z,154005.09
2022-09-09T20:59:16.927Z,154001.22
2022-09-09T21:01:47.383Z,154005.09
2022-09-09T21:04:17.385Z,153994.72
2022-09-09T21:06:48.392Z,153985.63
2022-09-09T21:09:16.160Z,153963.63
2022-09-09T21:11:43.892Z,153940.31
2022-09-09T21:14:11.921Z,153966.22
2022-09-09T21:16:39.789Z,153935.09
2022-09-09T21:19:07.515Z,153942.91
2022-09-09T21:21:36.197Z,153941.56
2022-09-09T21:24:05.915Z,153966.22
2022-09-09T21:26:35.476Z,153961.03
2022-09-09T21:29:03.231Z,153945.44
2022-09-09T21:31:31.470Z,153984.38
2022-09-09T21:33:59.489Z,153953.25
2022-09-09T21:36:28.364Z,153983.03
2022-09-09T21:38:56.770Z,153973.97
2022-09-09T21:41:26.149Z,153935.09
2022-09-09T21:43:55.233Z,153973.97
2022-09-09T21:46:26.483Z,153944.19
2022-09-09T21:48:56.495Z,153948.03
2022-09-09T21:51:24.325Z,153942.91
2022-09-09T21:53:55.187Z,153972.69
2022-09-09T21:56:23.581Z,153955.84
2022-09-09T21:58:57.881Z,153979.19
2022-09-09T22:01:26.985Z,153968.81
2022-09-09T22:03:55.024Z,153984.38
2022-09-09T22:06:23.022Z,153989.56
2022-09-09T22:08:50.915Z,153984.38
2022-09-09T22:11:22.186Z,153968.81
2022-09-09T22:13:50.754Z,153977.91
2022-09-09T22:16:21.825Z,153958.44
2022-09-09T22:18:52.935Z,153940.31
2022-09-09T22:21:21.989Z,153950.66
2022-09-09T22:23:54.226Z,153973.97
2022-09-09T22:26:22.185Z,153933.78
2022-09-09T22:28:50.181Z,153962.31
2022-09-09T22:31:19.560Z,153957.16
2022-09-09T22:33:47.655Z,153966.22
2022-09-09T22:36:15.703Z,153964.91
2022-09-09T22:38:43.459Z,153945.44
2022-09-09T22:41:11.490Z,153941.56
2022-09-09T22:43:39.305Z,153923.44
2022-09-09T22:46:07.095Z,153935.09
2022-09-09T22:48:37.810Z,153923.44
2022-09-09T22:51:08.089Z,153897.50
2022-09-09T22:53:36.783Z,153909.19
2022-09-09T22:56:07.074Z,153914.38
2022-09-09T22:58:36.852Z,153914.38
2022-09-09T23:01:09.916Z,153938.97
2022-09-09T23:03:41.332Z,153932.50
2022-09-09T23:06:12.281Z,153931.22
2022-09-09T23:08:40.392Z,153910.44
2022-09-09T23:11:11.347Z,153872.81
2022-09-09T23:13:41.279Z,153896.25
2022-09-09T23:16:12.467Z,153893.66
2022-09-09T23:18:41.903Z,153876.72
2022-09-09T23:21:11.330Z,153850.81
2022-09-09T23:23:40.631Z,153876.72
2022-09-09T23:26:09.992Z,153857.28
2022-09-09T23:28:41.887Z,153875.41
2022-09-09T23:31:10.841Z,153837.81
2022-09-09T23:33:39.743Z,153844.34
2022-09-09T23:36:11.760Z,153867.66
2022-09-09T23:38:40.887Z,153836.56
2022-09-09T23:41:11.493Z,153843.03
2022-09-09T23:43:40.394Z,153843.03
2022-09-09T23:46:08.978Z,153833.97
2022-09-09T23:48:39.220Z,153818.41
2022-09-09T23:51:10.778Z,153813.22
2022-09-09T23:53:38.595Z,153776.91
2022-09-09T23:56:06.481Z,153735.47
2022-09-09T23:58:34.949Z,153808.03
